sensor_id;sensor_type;location;lat;lon;timestamp;P1;durP1;ratioP1;P2;durP2;ratioP2
75016;SDS011;63577;39.766;2.720;2023-07-20T00:01:45;21.30;;;9.60;;
75016;SDS011;63577;39.766;2.720;2023-07-20T00:04:11;21.40;;;10.40;;
75016;SDS011;63577;39.766;2.720;2023-07-20T00:06:36;18.30;;;8.30;;
75016;SDS011;63577;39.766;2.720;2023-07-20T00:09:06;17.20;;;9.00;;
75016;SDS011;63577;39.766;2.720;2023-07-20T00:11:34;16.90;;;9.00;;
75016;SDS011;63577;39.766;2.720;2023-07-20T00:14:00;25.90;;;9.90;;
75016;SDS011;63577;39.766;2.720;2023-07-20T00:16:25;18.20;;;9.20;;
75016;SDS011;63577;39.766;2.720;2023-07-20T00:18:51;17.30;;;8.50;;
75016;SDS011;63577;39.766;2.720;2023-07-20T00:21:16;18.00;;;9.50;;
75016;SDS011;63577;39.766;2.720;2023-07-20T00:23:41;15.60;;;8.90;;
75016;SDS011;63577;39.766;2.720;2023-07-20T00:26:07;14.00;;;8.30;;
75016;SDS011;63577;39.766;2.720;2023-07-20T00:28:32;19.50;;;8.60;;
75016;SDS011;63577;39.766;2.720;2023-07-20T00:30:59;17.00;;;9.70;;
75016;SDS011;63577;39.766;2.720;2023-07-20T00:33:24;16.20;;;8.80;;
75016;SDS011;63577;39.766;2.720;2023-07-20T00:35:49;18.40;;;9.50;;
75016;SDS011;63577;39.766;2.720;2023-07-20T00:38:15;15.30;;;7.50;;
75016;SDS011;63577;39.766;2.720;2023-07-20T00:40:41;19.10;;;9.20;;
75016;SDS011;63577;39.766;2.720;2023-07-20T00:43:08;16.10;;;8.60;;
75016;SDS011;63577;39.766;2.720;2023-07-20T00:45:34;17.30;;;10.00;;
75016;SDS011;63577;39.766;2.720;2023-07-20T00:48:01;17.20;;;9.10;;
75016;SDS011;63577;39.766;2.720;2023-07-20T00:50:26;15.30;;;8.10;;
75016;SDS011;63577;39.766;2.720;2023-07-20T00:52:53;19.20;;;8.70;;
75016;SDS011;63577;39.766;2.720;2023-07-20T00:55:18;16.40;;;9.30;;
75016;SDS011;63577;39.766;2.720;2023-07-20T00:57:44;15.40;;;8.60;;
75016;SDS011;63577;39.766;2.720;2023-07-20T01:00:10;16.90;;;9.10;;
75016;SDS011;63577;39.766;2.720;2023-07-20T01:02:35;16.00;;;8.50;;
75016;SDS011;63577;39.766;2.720;2023-07-20T01:05:02;16.60;;;9.10;;
75016;SDS011;63577;39.766;2.720;2023-07-20T01:10:09;16.20;;;8.60;;
75016;SDS011;63577;39.766;2.720;2023-07-20T01:12:39;15.90;;;8.90;;
75016;SDS011;63577;39.766;2.720;2023-07-20T01:15:06;14.70;;;9.00;;
75016;SDS011;63577;39.766;2.720;2023-07-20T01:17:33;14.20;;;8.00;;
75016;SDS011;63577;39.766;2.720;2023-07-20T01:19:58;15.30;;;8.50;;
75016;SDS011;63577;39.766;2.720;2023-07-20T01:27:34;15.50;;;8.70;;
75016;SDS011;63577;39.766;2.720;2023-07-20T01:32:43;16.40;;;8.30;;
75016;SDS011;63577;39.766;2.720;2023-07-20T01:35:10;14.50;;;8.90;;
75016;SDS011;63577;39.766;2.720;2023-07-20T01:37:39;15.20;;;8.40;;
75016;SDS011;63577;39.766;2.720;2023-07-20T01:40:06;15.40;;;9.40;;
75016;SDS011;63577;39.766;2.720;2023-07-20T01:42:31;14.10;;;8.70;;
75016;SDS011;63577;39.766;2.720;2023-07-20T01:44:57;16.50;;;8.20;;
75016;SDS011;63577;39.766;2.720;2023-07-20T01:47:22;15.60;;;7.70;;
75016;SDS011;63577;39.766;2.720;2023-07-20T01:49:48;15.80;;;7.90;;
75016;SDS011;63577;39.766;2.720;2023-07-20T01:52:13;19.40;;;8.50;;
75016;SDS011;63577;39.766;2.720;2023-07-20T01:54:39;15.90;;;8.90;;
75016;SDS011;63577;39.766;2.720;2023-07-20T01:57:04;14.30;;;8.10;;
75016;SDS011;63577;39.766;2.720;2023-07-20T01:59:30;19.80;;;8.80;;
75016;SDS011;63577;39.766;2.720;2023-07-20T02:01:55;14.70;;;7.50;;
75016;SDS011;63577;39.766;2.720;2023-07-20T02:04:20;14.70;;;7.70;;
75016;SDS011;63577;39.766;2.720;2023-07-20T02:06:46;15.50;;;8.40;;
75016;SDS011;63577;39.766;2.720;2023-07-20T02:09:11;17.00;;;8.20;;
75016;SDS011;63577;39.766;2.720;2023-07-20T02:11:36;15.00;;;8.20;;
75016;SDS011;63577;39.766;2.720;2023-07-20T02:14:02;16.70;;;7.80;;
75016;SDS011;63577;39.766;2.720;2023-07-20T02:16:27;16.60;;;9.00;;
75016;SDS011;63577;39.766;2.720;2023-07-20T02:18:52;15.50;;;7.60;;
75016;SDS011;63577;39.766;2.720;2023-07-20T02:21:18;15.40;;;8.10;;
75016;SDS011;63577;39.766;2.720;2023-07-20T02:23:43;15.90;;;8.70;;
75016;SDS011;63577;39.766;2.720;2023-07-20T02:26:08;14.40;;;8.60;;
75016;SDS011;63577;39.766;2.720;2023-07-20T02:28:34;15.80;;;9.00;;
75016;SDS011;63577;39.766;2.720;2023-07-20T02:30:59;15.40;;;7.90;;
75016;SDS011;63577;39.766;2.720;2023-07-20T02:33:25;16.20;;;8.60;;
75016;SDS011;63577;39.766;2.720;2023-07-20T02:35:51;16.30;;;8.80;;
75016;SDS011;63577;39.766;2.720;2023-07-20T02:38:17;18.00;;;8.10;;
75016;SDS011;63577;39.766;2.720;2023-07-20T02:40:42;17.00;;;8.80;;
75016;SDS011;63577;39.766;2.720;2023-07-20T02:43:07;14.90;;;8.50;;
75016;SDS011;63577;39.766;2.720;2023-07-20T02:45:34;16.40;;;8.00;;
75016;SDS011;63577;39.766;2.720;2023-07-20T02:48:00;17.10;;;9.10;;
75016;SDS011;63577;39.766;2.720;2023-07-20T02:50:26;15.10;;;8.60;;
75016;SDS011;63577;39.766;2.720;2023-07-20T02:52:51;14.90;;;8.60;;
75016;SDS011;63577;39.766;2.720;2023-07-20T02:55:16;12.70;;;7.80;;
75016;SDS011;63577;39.766;2.720;2023-07-20T02:57:42;15.10;;;9.00;;
75016;SDS011;63577;39.766;2.720;2023-07-20T03:00:07;14.70;;;8.50;;
75016;SDS011;63577;39.766;2.720;2023-07-20T03:02:33;16.60;;;8.10;;
75016;SDS011;63577;39.766;2.720;2023-07-20T03:04:58;15.80;;;8.20;;
75016;SDS011;63577;39.766;2.720;2023-07-20T03:07:24;16.30;;;8.10;;
75016;SDS011;63577;39.766;2.720;2023-07-20T03:09:51;14.10;;;8.10;;
75016;SDS011;63577;39.766;2.720;2023-07-20T03:12:17;18.40;;;9.10;;
75016;SDS011;63577;39.766;2.720;2023-07-20T03:14:42;15.70;;;8.10;;
75016;SDS011;63577;39.766;2.720;2023-07-20T03:17:07;17.20;;;9.00;;
75016;SDS011;63577;39.766;2.720;2023-07-20T03:19:33;15.80;;;8.00;;
75016;SDS011;63577;39.766;2.720;2023-07-20T03:21:59;14.40;;;8.30;;
75016;SDS011;63577;39.766;2.720;2023-07-20T03:24:24;14.60;;;9.20;;
75016;SDS011;63577;39.766;2.720;2023-07-20T03:26:49;14.40;;;8.30;;
75016;SDS011;63577;39.766;2.720;2023-07-20T03:29:15;15.40;;;8.50;;
75016;SDS011;63577;39.766;2.720;2023-07-20T03:31:41;17.60;;;8.60;;
75016;SDS011;63577;39.766;2.720;2023-07-20T03:34:06;18.50;;;9.70;;
75016;SDS011;63577;39.766;2.720;2023-07-20T03:36:33;15.80;;;8.70;;
75016;SDS011;63577;39.766;2.720;2023-07-20T03:38:58;15.30;;;8.10;;
75016;SDS011;63577;39.766;2.720;2023-07-20T03:41:24;17.40;;;9.00;;
75016;SDS011;63577;39.766;2.720;2023-07-20T03:43:49;17.30;;;8.20;;
75016;SDS011;63577;39.766;2.720;2023-07-20T03:46:15;14.70;;;8.70;;
75016;SDS011;63577;39.766;2.720;2023-07-20T03:48:40;20.40;;;8.80;;
75016;SDS011;63577;39.766;2.720;2023-07-20T03:51:06;13.90;;;7.50;;
75016;SDS011;63577;39.766;2.720;2023-07-20T03:53:31;14.70;;;8.90;;
75016;SDS011;63577;39.766;2.720;2023-07-20T03:55:57;15.00;;;7.50;;
75016;SDS011;63577;39.766;2.720;2023-07-20T03:58:23;14.70;;;8.00;;
75016;SDS011;63577;39.766;2.720;2023-07-20T04:00:49;14.50;;;8.80;;
75016;SDS011;63577;39.766;2.720;2023-07-20T04:03:15;17.00;;;8.90;;
75016;SDS011;63577;39.766;2.720;2023-07-20T04:05:41;15.50;;;8.20;;
75016;SDS011;63577;39.766;2.720;2023-07-20T04:08:07;18.80;;;8.50;;
75016;SDS011;63577;39.766;2.720;2023-07-20T04:10:32;18.80;;;8.50;;
75016;SDS011;63577;39.766;2.720;2023-07-20T04:12:58;18.20;;;9.00;;
75016;SDS011;63577;39.766;2.720;2023-07-20T04:15:23;15.90;;;9.40;;
75016;SDS011;63577;39.766;2.720;2023-07-20T04:17:48;16.40;;;9.40;;
75016;SDS011;63577;39.766;2.720;2023-07-20T04:20:14;15.30;;;9.10;;
75016;SDS011;63577;39.766;2.720;2023-07-20T04:22:39;15.10;;;9.40;;
75016;SDS011;63577;39.766;2.720;2023-07-20T04:25:05;17.10;;;9.30;;
75016;SDS011;63577;39.766;2.720;2023-07-20T04:27:30;18.30;;;9.60;;
75016;SDS011;63577;39.766;2.720;2023-07-20T04:29:57;19.30;;;9.90;;
75016;SDS011;63577;39.766;2.720;2023-07-20T04:32:25;16.70;;;9.50;;
75016;SDS011;63577;39.766;2.720;2023-07-20T04:34:50;17.40;;;9.10;;
75016;SDS011;63577;39.766;2.720;2023-07-20T04:37:16;20.70;;;8.70;;
75016;SDS011;63577;39.766;2.720;2023-07-20T04:39:41;15.30;;;7.70;;
75016;SDS011;63577;39.766;2.720;2023-07-20T04:42:06;17.20;;;8.70;;
75016;SDS011;63577;39.766;2.720;2023-07-20T04:44:32;16.00;;;8.80;;
75016;SDS011;63577;39.766;2.720;2023-07-20T04:46:57;22.00;;;8.70;;
75016;SDS011;63577;39.766;2.720;2023-07-20T04:49:22;17.30;;;8.20;;
75016;SDS011;63577;39.766;2.720;2023-07-20T04:51:48;15.90;;;7.60;;
75016;SDS011;63577;39.766;2.720;2023-07-20T04:54:13;16.20;;;7.30;;
75016;SDS011;63577;39.766;2.720;2023-07-20T04:56:38;17.40;;;8.30;;
75016;SDS011;63577;39.766;2.720;2023-07-20T04:59:04;18.40;;;8.90;;
75016;SDS011;63577;39.766;2.720;2023-07-20T05:01:29;17.80;;;8.60;;
75016;SDS011;63577;39.766;2.720;2023-07-20T05:03:54;15.40;;;8.60;;
75016;SDS011;63577;39.766;2.720;2023-07-20T05:06:20;18.30;;;7.90;;
75016;SDS011;63577;39.766;2.720;2023-07-20T05:08:45;14.30;;;8.40;;
75016;SDS011;63577;39.766;2.720;2023-07-20T05:11:11;19.90;;;8.60;;
75016;SDS011;63577;39.766;2.720;2023-07-20T05:13:37;18.10;;;9.00;;
75016;SDS011;63577;39.766;2.720;2023-07-20T05:16:02;14.70;;;8.10;;
75016;SDS011;63577;39.766;2.720;2023-07-20T05:18:27;16.20;;;8.80;;
75016;SDS011;63577;39.766;2.720;2023-07-20T05:20:53;14.70;;;8.30;;
75016;SDS011;63577;39.766;2.720;2023-07-20T05:23:20;18.90;;;8.60;;
75016;SDS011;63577;39.766;2.720;2023-07-20T05:25:46;17.00;;;7.70;;
75016;SDS011;63577;39.766;2.720;2023-07-20T05:28:11;15.60;;;8.60;;
75016;SDS011;63577;39.766;2.720;2023-07-20T05:30:37;19.10;;;8.00;;
75016;SDS011;63577;39.766;2.720;2023-07-20T05:33:02;19.00;;;8.50;;
75016;SDS011;63577;39.766;2.720;2023-07-20T05:35:27;21.20;;;8.10;;
75016;SDS011;63577;39.766;2.720;2023-07-20T05:37:53;17.90;;;7.60;;
75016;SDS011;63577;39.766;2.720;2023-07-20T05:40:18;19.80;;;8.40;;
75016;SDS011;63577;39.766;2.720;2023-07-20T05:42:45;17.80;;;9.00;;
75016;SDS011;63577;39.766;2.720;2023-07-20T05:45:11;16.20;;;8.70;;
75016;SDS011;63577;39.766;2.720;2023-07-20T05:47:37;17.20;;;8.80;;
75016;SDS011;63577;39.766;2.720;2023-07-20T05:50:02;27.10;;;9.80;;
75016;SDS011;63577;39.766;2.720;2023-07-20T05:52:28;22.70;;;10.90;;
75016;SDS011;63577;39.766;2.720;2023-07-20T05:54:54;19.40;;;9.90;;
75016;SDS011;63577;39.766;2.720;2023-07-20T05:57:20;19.10;;;8.90;;
75016;SDS011;63577;39.766;2.720;2023-07-20T05:59:46;18.00;;;10.40;;
75016;SDS011;63577;39.766;2.720;2023-07-20T06:02:11;18.20;;;10.60;;
75016;SDS011;63577;39.766;2.720;2023-07-20T06:04:38;18.00;;;10.20;;
75016;SDS011;63577;39.766;2.720;2023-07-20T06:07:04;18.70;;;10.40;;
75016;SDS011;63577;39.766;2.720;2023-07-20T06:09:30;20.70;;;9.80;;
75016;SDS011;63577;39.766;2.720;2023-07-20T06:11:55;22.30;;;9.90;;
75016;SDS011;63577;39.766;2.720;2023-07-20T06:14:21;18.60;;;10.00;;
75016;SDS011;63577;39.766;2.720;2023-07-20T06:16:47;18.20;;;8.90;;
75016;SDS011;63577;39.766;2.720;2023-07-20T06:19:12;17.20;;;9.10;;
75016;SDS011;63577;39.766;2.720;2023-07-20T06:21:38;17.40;;;8.40;;
75016;SDS011;63577;39.766;2.720;2023-07-20T06:24:03;17.30;;;9.60;;
75016;SDS011;63577;39.766;2.720;2023-07-20T06:26:29;21.40;;;9.70;;
75016;SDS011;63577;39.766;2.720;2023-07-20T06:28:55;15.80;;;9.70;;
75016;SDS011;63577;39.766;2.720;2023-07-20T06:31:21;17.80;;;8.80;;
75016;SDS011;63577;39.766;2.720;2023-07-20T06:33:46;21.10;;;9.90;;
75016;SDS011;63577;39.766;2.720;2023-07-20T06:36:11;19.80;;;9.80;;
75016;SDS011;63577;39.766;2.720;2023-07-20T06:38:37;19.20;;;9.00;;
75016;SDS011;63577;39.766;2.720;2023-07-20T06:41:02;21.80;;;10.50;;
75016;SDS011;63577;39.766;2.720;2023-07-20T06:43:27;20.40;;;9.50;;
75016;SDS011;63577;39.766;2.720;2023-07-20T06:45:53;20.30;;;9.30;;
75016;SDS011;63577;39.766;2.720;2023-07-20T06:48:18;20.30;;;9.00;;
75016;SDS011;63577;39.766;2.720;2023-07-20T06:50:44;17.70;;;9.00;;
75016;SDS011;63577;39.766;2.720;2023-07-20T06:53:09;17.00;;;9.70;;
75016;SDS011;63577;39.766;2.720;2023-07-20T06:55:35;18.20;;;9.20;;
75016;SDS011;63577;39.766;2.720;2023-07-20T06:58:00;18.90;;;10.50;;
75016;SDS011;63577;39.766;2.720;2023-07-20T07:00:25;21.80;;;10.60;;
75016;SDS011;63577;39.766;2.720;2023-07-20T07:02:51;14.30;;;8.70;;
75016;SDS011;63577;39.766;2.720;2023-07-20T07:05:16;18.50;;;9.30;;
75016;SDS011;63577;39.766;2.720;2023-07-20T07:07:41;17.10;;;9.50;;
75016;SDS011;63577;39.766;2.720;2023-07-20T07:10:07;19.90;;;10.40;;
75016;SDS011;63577;39.766;2.720;2023-07-20T07:12:33;18.50;;;9.30;;
75016;SDS011;63577;39.766;2.720;2023-07-20T07:15:00;19.90;;;10.90;;
75016;SDS011;63577;39.766;2.720;2023-07-20T07:17:26;19.30;;;10.60;;
75016;SDS011;63577;39.766;2.720;2023-07-20T07:19:51;21.70;;;10.20;;
75016;SDS011;63577;39.766;2.720;2023-07-20T07:22:20;24.60;;;10.50;;
75016;SDS011;63577;39.766;2.720;2023-07-20T07:24:46;18.30;;;9.10;;
75016;SDS011;63577;39.766;2.720;2023-07-20T07:27:11;18.10;;;9.90;;
75016;SDS011;63577;39.766;2.720;2023-07-20T07:29:37;18.20;;;10.00;;
75016;SDS011;63577;39.766;2.720;2023-07-20T07:32:03;16.50;;;10.00;;
75016;SDS011;63577;39.766;2.720;2023-07-20T07:34:28;17.70;;;9.20;;
75016;SDS011;63577;39.766;2.720;2023-07-20T07:36:54;17.00;;;9.10;;
75016;SDS011;63577;39.766;2.720;2023-07-20T07:39:19;16.10;;;8.90;;
75016;SDS011;63577;39.766;2.720;2023-07-20T07:41:44;17.00;;;9.10;;
75016;SDS011;63577;39.766;2.720;2023-07-20T07:44:10;20.10;;;8.80;;
75016;SDS011;63577;39.766;2.720;2023-07-20T07:46:35;18.00;;;9.00;;
75016;SDS011;63577;39.766;2.720;2023-07-20T07:49:00;13.60;;;8.70;;
75016;SDS011;63577;39.766;2.720;2023-07-20T07:51:26;18.70;;;8.70;;
75016;SDS011;63577;39.766;2.720;2023-07-20T07:53:52;15.70;;;9.30;;
75016;SDS011;63577;39.766;2.720;2023-07-20T07:56:18;20.60;;;8.90;;
75016;SDS011;63577;39.766;2.720;2023-07-20T07:58:48;16.80;;;8.50;;
75016;SDS011;63577;39.766;2.720;2023-07-20T08:01:13;17.80;;;9.00;;
75016;SDS011;63577;39.766;2.720;2023-07-20T08:03:39;19.40;;;8.70;;
75016;SDS011;63577;39.766;2.720;2023-07-20T08:06:05;15.40;;;8.50;;
75016;SDS011;63577;39.766;2.720;2023-07-20T08:08:31;18.40;;;9.00;;
75016;SDS011;63577;39.766;2.720;2023-07-20T08:10:57;17.30;;;9.20;;
75016;SDS011;63577;39.766;2.720;2023-07-20T08:13:23;16.00;;;9.30;;
75016;SDS011;63577;39.766;2.720;2023-07-20T08:15:49;15.40;;;9.00;;
75016;SDS011;63577;39.766;2.720;2023-07-20T08:18:16;15.40;;;9.50;;
75016;SDS011;63577;39.766;2.720;2023-07-20T08:20:43;18.30;;;8.40;;
75016;SDS011;63577;39.766;2.720;2023-07-20T08:23:08;14.60;;;7.70;;
75016;SDS011;63577;39.766;2.720;2023-07-20T08:25:35;16.70;;;8.20;;
75016;SDS011;63577;39.766;2.720;2023-07-20T08:28:01;17.80;;;8.30;;
75016;SDS011;63577;39.766;2.720;2023-07-20T08:30:37;14.20;;;9.10;;
75016;SDS011;63577;39.766;2.720;2023-07-20T08:33:04;19.40;;;8.50;;
75016;SDS011;63577;39.766;2.720;2023-07-20T08:35:29;17.30;;;8.10;;
75016;SDS011;63577;39.766;2.720;2023-07-20T08:37:55;17.90;;;8.30;;
75016;SDS011;63577;39.766;2.720;2023-07-20T08:40:20;17.30;;;9.40;;
75016;SDS011;63577;39.766;2.720;2023-07-20T08:42:45;15.20;;;8.10;;
75016;SDS011;63577;39.766;2.720;2023-07-20T08:45:11;20.80;;;9.10;;
75016;SDS011;63577;39.766;2.720;2023-07-20T08:47:38;17.60;;;8.90;;
75016;SDS011;63577;39.766;2.720;2023-07-20T08:50:06;19.30;;;8.10;;
75016;SDS011;63577;39.766;2.720;2023-07-20T08:52:33;19.20;;;10.00;;
75016;SDS011;63577;39.766;2.720;2023-07-20T08:54:59;16.60;;;8.90;;
75016;SDS011;63577;39.766;2.720;2023-07-20T08:57:28;19.10;;;9.00;;
75016;SDS011;63577;39.766;2.720;2023-07-20T08:59:54;15.80;;;8.50;;
75016;SDS011;63577;39.766;2.720;2023-07-20T09:02:19;16.20;;;9.50;;
75016;SDS011;63577;39.766;2.720;2023-07-20T09:04:47;18.10;;;9.30;;
75016;SDS011;63577;39.766;2.720;2023-07-20T09:07:12;17.30;;;8.40;;
75016;SDS011;63577;39.766;2.720;2023-07-20T09:09:41;19.30;;;9.30;;
75016;SDS011;63577;39.766;2.720;2023-07-20T09:12:13;17.10;;;9.30;;
75016;SDS011;63577;39.766;2.720;2023-07-20T09:14:39;22.40;;;10.00;;
75016;SDS011;63577;39.766;2.720;2023-07-20T09:17:04;21.00;;;9.70;;
75016;SDS011;63577;39.766;2.720;2023-07-20T09:19:29;18.30;;;9.10;;
75016;SDS011;63577;39.766;2.720;2023-07-20T09:21:55;23.80;;;10.50;;
75016;SDS011;63577;39.766;2.720;2023-07-20T09:24:21;15.60;;;9.00;;
75016;SDS011;63577;39.766;2.720;2023-07-20T09:26:48;18.70;;;8.80;;
75016;SDS011;63577;39.766;2.720;2023-07-20T09:29:13;26.60;;;15.30;;
75016;SDS011;63577;39.766;2.720;2023-07-20T09:31:39;31.20;;;18.40;;
75016;SDS011;63577;39.766;2.720;2023-07-20T09:34:07;18.30;;;9.50;;
75016;SDS011;63577;39.766;2.720;2023-07-20T09:36:33;16.90;;;8.10;;
75016;SDS011;63577;39.766;2.720;2023-07-20T09:38:58;16.80;;;8.30;;
75016;SDS011;63577;39.766;2.720;2023-07-20T09:41:24;22.00;;;8.30;;
75016;SDS011;63577;39.766;2.720;2023-07-20T09:43:50;21.40;;;9.20;;
75016;SDS011;63577;39.766;2.720;2023-07-20T09:46:16;17.30;;;9.10;;
75016;SDS011;63577;39.766;2.720;2023-07-20T09:48:48;17.60;;;8.40;;
75016;SDS011;63577;39.766;2.720;2023-07-20T09:51:16;19.90;;;9.20;;
75016;SDS011;63577;39.766;2.720;2023-07-20T09:53:43;21.30;;;9.80;;
75016;SDS011;63577;39.766;2.720;2023-07-20T09:56:09;18.90;;;9.00;;
75016;SDS011;63577;39.766;2.720;2023-07-20T09:58:36;14.80;;;8.50;;
75016;SDS011;63577;39.766;2.720;2023-07-20T10:01:02;23.30;;;8.30;;
75016;SDS011;63577;39.766;2.720;2023-07-20T10:03:29;19.30;;;7.90;;
75016;SDS011;63577;39.766;2.720;2023-07-20T10:05:58;17.10;;;8.00;;
75016;SDS011;63577;39.766;2.720;2023-07-20T10:08:25;17.30;;;9.00;;
75016;SDS011;63577;39.766;2.720;2023-07-20T10:10:51;19.80;;;9.10;;
75016;SDS011;63577;39.766;2.720;2023-07-20T10:13:17;20.00;;;8.30;;
75016;SDS011;63577;39.766;2.720;2023-07-20T10:15:43;29.00;;;9.40;;
75016;SDS011;63577;39.766;2.720;2023-07-20T10:18:30;16.70;;;8.80;;
75016;SDS011;63577;39.766;2.720;2023-07-20T10:20:56;17.40;;;8.40;;
75016;SDS011;63577;39.766;2.720;2023-07-20T10:23:24;17.00;;;8.60;;
75016;SDS011;63577;39.766;2.720;2023-07-20T10:25:51;16.60;;;8.10;;
75016;SDS011;63577;39.766;2.720;2023-07-20T10:28:17;17.60;;;8.50;;
75016;SDS011;63577;39.766;2.720;2023-07-20T10:30:43;16.40;;;8.60;;
75016;SDS011;63577;39.766;2.720;2023-07-20T10:33:08;15.70;;;8.20;;
75016;SDS011;63577;39.766;2.720;2023-07-20T10:38:38;17.70;;;7.70;;
75016;SDS011;63577;39.766;2.720;2023-07-20T10:41:05;13.60;;;8.00;;
75016;SDS011;63577;39.766;2.720;2023-07-20T10:43:42;18.00;;;8.00;;
75016;SDS011;63577;39.766;2.720;2023-07-20T10:46:07;20.40;;;8.40;;
75016;SDS011;63577;39.766;2.720;2023-07-20T10:48:32;19.40;;;7.40;;
75016;SDS011;63577;39.766;2.720;2023-07-20T10:51:11;16.80;;;8.00;;
75016;SDS011;63577;39.766;2.720;2023-07-20T10:53:38;18.40;;;7.90;;
75016;SDS011;63577;39.766;2.720;2023-07-20T10:56:08;17.70;;;6.80;;
75016;SDS011;63577;39.766;2.720;2023-07-20T10:58:33;16.70;;;6.70;;
75016;SDS011;63577;39.766;2.720;2023-07-20T11:01:02;13.90;;;7.50;;
75016;SDS011;63577;39.766;2.720;2023-07-20T11:03:34;18.10;;;6.90;;
75016;SDS011;63577;39.766;2.720;2023-07-20T11:06:29;18.20;;;7.10;;
75016;SDS011;63577;39.766;2.720;2023-07-20T11:08:46;14.00;;;6.50;;
75016;SDS011;63577;39.766;2.720;2023-07-20T11:11:30;14.40;;;7.30;;
75016;SDS011;63577;39.766;2.720;2023-07-20T11:19:23;19.10;;;7.00;;
75016;SDS011;63577;39.766;2.720;2023-07-20T11:21:55;13.80;;;5.70;;
75016;SDS011;63577;39.766;2.720;2023-07-20T11:24:20;17.30;;;7.00;;
75016;SDS011;63577;39.766;2.720;2023-07-20T11:26:46;14.60;;;7.10;;
75016;SDS011;63577;39.766;2.720;2023-07-20T11:29:12;14.00;;;6.50;;
75016;SDS011;63577;39.766;2.720;2023-07-20T11:31:38;16.10;;;6.90;;
75016;SDS011;63577;39.766;2.720;2023-07-20T11:34:04;17.50;;;7.80;;
75016;SDS011;63577;39.766;2.720;2023-07-20T11:36:30;14.20;;;7.50;;
75016;SDS011;63577;39.766;2.720;2023-07-20T11:38:57;16.60;;;7.00;;
75016;SDS011;63577;39.766;2.720;2023-07-20T11:41:22;13.40;;;6.60;;
75016;SDS011;63577;39.766;2.720;2023-07-20T11:43:48;16.00;;;7.80;;
75016;SDS011;63577;39.766;2.720;2023-07-20T11:46:13;18.20;;;7.40;;
75016;SDS011;63577;39.766;2.720;2023-07-20T11:48:38;15.30;;;6.70;;
75016;SDS011;63577;39.766;2.720;2023-07-20T11:51:05;15.80;;;6.70;;
75016;SDS011;63577;39.766;2.720;2023-07-20T11:53:30;15.70;;;7.00;;
75016;SDS011;63577;39.766;2.720;2023-07-20T11:55:58;13.70;;;7.30;;
75016;SDS011;63577;39.766;2.720;2023-07-20T11:58:24;15.80;;;7.50;;
75016;SDS011;63577;39.766;2.720;2023-07-20T12:00:49;14.00;;;7.40;;
75016;SDS011;63577;39.766;2.720;2023-07-20T12:03:15;15.50;;;6.90;;
75016;SDS011;63577;39.766;2.720;2023-07-20T12:05:40;14.80;;;6.70;;
75016;SDS011;63577;39.766;2.720;2023-07-20T12:08:05;13.90;;;7.20;;
75016;SDS011;63577;39.766;2.720;2023-07-20T12:10:31;14.20;;;7.20;;
75016;SDS011;63577;39.766;2.720;2023-07-20T12:13:02;16.20;;;6.80;;
75016;SDS011;63577;39.766;2.720;2023-07-20T12:15:32;16.30;;;7.50;;
75016;SDS011;63577;39.766;2.720;2023-07-20T12:17:58;16.00;;;7.70;;
75016;SDS011;63577;39.766;2.720;2023-07-20T12:20:28;20.20;;;7.90;;
75016;SDS011;63577;39.766;2.720;2023-07-20T12:25:19;16.30;;;7.60;;
75016;SDS011;63577;39.766;2.720;2023-07-20T12:27:45;12.90;;;7.20;;
75016;SDS011;63577;39.766;2.720;2023-07-20T12:30:12;16.20;;;7.60;;
75016;SDS011;63577;39.766;2.720;2023-07-20T12:32:38;16.50;;;7.60;;
75016;SDS011;63577;39.766;2.720;2023-07-20T12:35:04;16.80;;;7.60;;
75016;SDS011;63577;39.766;2.720;2023-07-20T12:37:29;17.30;;;7.70;;
75016;SDS011;63577;39.766;2.720;2023-07-20T12:39:55;17.10;;;7.70;;
75016;SDS011;63577;39.766;2.720;2023-07-20T12:42:20;16.40;;;7.00;;
75016;SDS011;63577;39.766;2.720;2023-07-20T12:44:46;17.10;;;7.30;;
75016;SDS011;63577;39.766;2.720;2023-07-20T12:47:12;15.80;;;7.40;;
75016;SDS011;63577;39.766;2.720;2023-07-20T12:49:37;18.20;;;7.40;;
75016;SDS011;63577;39.766;2.720;2023-07-20T12:52:03;15.20;;;7.30;;
75016;SDS011;63577;39.766;2.720;2023-07-20T12:54:28;14.60;;;6.80;;
75016;SDS011;63577;39.766;2.720;2023-07-20T12:56:54;16.10;;;8.10;;
75016;SDS011;63577;39.766;2.720;2023-07-20T12:59:19;18.10;;;7.60;;
75016;SDS011;63577;39.766;2.720;2023-07-20T13:01:45;14.60;;;5.70;;
75016;SDS011;63577;39.766;2.720;2023-07-20T13:04:10;15.20;;;6.50;;
75016;SDS011;63577;39.766;2.720;2023-07-20T13:06:36;15.90;;;5.70;;
75016;SDS011;63577;39.766;2.720;2023-07-20T13:09:01;10.60;;;5.60;;
75016;SDS011;63577;39.766;2.720;2023-07-20T13:11:27;13.80;;;5.20;;
75016;SDS011;63577;39.766;2.720;2023-07-20T13:13:52;13.60;;;5.80;;
75016;SDS011;63577;39.766;2.720;2023-07-20T13:16:18;16.40;;;5.10;;
75016;SDS011;63577;39.766;2.720;2023-07-20T13:18:43;15.60;;;6.10;;
75016;SDS011;63577;39.766;2.720;2023-07-20T13:21:09;12.60;;;5.20;;
75016;SDS011;63577;39.766;2.720;2023-07-20T13:23:39;14.40;;;5.50;;
75016;SDS011;63577;39.766;2.720;2023-07-20T13:26:04;14.20;;;4.80;;
75016;SDS011;63577;39.766;2.720;2023-07-20T13:28:30;17.10;;;6.20;;
75016;SDS011;63577;39.766;2.720;2023-07-20T13:30:55;14.80;;;6.20;;
75016;SDS011;63577;39.766;2.720;2023-07-20T13:33:21;15.60;;;6.10;;
75016;SDS011;63577;39.766;2.720;2023-07-20T13:35:46;15.90;;;5.40;;
75016;SDS011;63577;39.766;2.720;2023-07-20T13:38:12;16.70;;;5.60;;
75016;SDS011;63577;39.766;2.720;2023-07-20T13:40:37;17.50;;;5.70;;
75016;SDS011;63577;39.766;2.720;2023-07-20T13:43:03;17.60;;;6.80;;
75016;SDS011;63577;39.766;2.720;2023-07-20T13:45:31;14.60;;;5.40;;
75016;SDS011;63577;39.766;2.720;2023-07-20T13:47:57;12.80;;;5.60;;
75016;SDS011;63577;39.766;2.720;2023-07-20T13:50:22;12.50;;;4.90;;
75016;SDS011;63577;39.766;2.720;2023-07-20T13:52:48;14.50;;;5.80;;
75016;SDS011;63577;39.766;2.720;2023-07-20T13:55:13;15.30;;;5.50;;
75016;SDS011;63577;39.766;2.720;2023-07-20T13:57:39;15.10;;;5.70;;
75016;SDS011;63577;39.766;2.720;2023-07-20T14:00:05;14.10;;;5.60;;
75016;SDS011;63577;39.766;2.720;2023-07-20T14:02:31;14.80;;;6.30;;
75016;SDS011;63577;39.766;2.720;2023-07-20T14:04:56;16.50;;;5.90;;
75016;SDS011;63577;39.766;2.720;2023-07-20T14:07:22;14.70;;;6.20;;
75016;SDS011;63577;39.766;2.720;2023-07-20T14:09:47;13.90;;;5.70;;
75016;SDS011;63577;39.766;2.720;2023-07-20T14:12:15;22.40;;;6.30;;
75016;SDS011;63577;39.766;2.720;2023-07-20T14:14:41;19.40;;;6.30;;
75016;SDS011;63577;39.766;2.720;2023-07-20T14:17:07;14.90;;;5.90;;
75016;SDS011;63577;39.766;2.720;2023-07-20T14:19:36;17.60;;;5.90;;
75016;SDS011;63577;39.766;2.720;2023-07-20T14:22:02;16.80;;;5.80;;
75016;SDS011;63577;39.766;2.720;2023-07-20T14:24:29;16.90;;;5.50;;
75016;SDS011;63577;39.766;2.720;2023-07-20T14:26:54;17.70;;;6.10;;
75016;SDS011;63577;39.766;2.720;2023-07-20T14:29:20;16.60;;;5.40;;
75016;SDS011;63577;39.766;2.720;2023-07-20T14:31:47;14.90;;;5.60;;
75016;SDS011;63577;39.766;2.720;2023-07-20T14:34:17;17.90;;;5.30;;
75016;SDS011;63577;39.766;2.720;2023-07-20T14:36:44;15.10;;;4.90;;
75016;SDS011;63577;39.766;2.720;2023-07-20T14:39:09;13.00;;;5.00;;
75016;SDS011;63577;39.766;2.720;2023-07-20T14:41:35;15.00;;;6.20;;
75016;SDS011;63577;39.766;2.720;2023-07-20T14:44:00;18.30;;;5.30;;
75016;SDS011;63577;39.766;2.720;2023-07-20T14:46:27;13.90;;;5.70;;
75016;SDS011;63577;39.766;2.720;2023-07-20T14:48:53;14.50;;;5.80;;